Flight Track Log - Related Links

Times and Time Zones

All times are in EDT time to prevent confusion due to time zone crossing. See the SKW5516 flight status page for this flight to view local times or setup timezone preferences in your user account.

Time Position Orientation Groundspeed Altitude Reporting Facility
EDT Latitude Longitude Course Direction KTS MPH feet Rate Location/Type
Fri 10:25:13 AM 39.8500 -104.7500 288° West 180 207 7,100  Level Denver TRACON
Fri 10:26:07 AM 39.8667 -104.8167 288° West 224 258 8,500 1,736 Climbing Denver TRACON
Fri 10:27:14 AM 39.9119 -104.9019 305° West 244 281 10,600 1,953 Climbing Denver Center
Fri 10:28:16 AM 39.9447 -104.9911 296° West 268 308 12,700 2,129 Climbing Denver Center
Fri 10:29:18 AM 39.9594 -105.1039 280° West 292 336 15,000 2,177 Climbing Denver Center
Fri 10:30:20 AM 39.9722 -105.2131 279° West 302 348 17,200 1,984 Climbing Denver Center
Fri 10:31:22 AM 39.9844 -105.3253 278° West 313 360 19,100 1,935 Climbing Denver Center
Fri 10:32:24 AM 39.9819 -105.4508 269° West 323 372 21,200 1,645 Climbing Denver Center
Fri 10:33:26 AM 39.9786 -105.5736 268° West 341 392 22,500 1,500 Climbing Denver Center
Fri 10:34:28 AM 39.9744 -105.7119 268° West 360 414 24,300 1,548 Climbing Denver Center
Fri 10:35:30 AM 39.9711 -105.8458 268° West 351 404 25,700 1,500 Climbing Denver Center
Fri 10:36:32 AM 39.9775 -105.9828 274° West 371 427 27,400 1,403 Climbing Denver Center
Fri 10:37:34 AM 39.9864 -106.1269 275° West 385 443 28,600 1,161 Climbing Denver Center
Fri 10:38:36 AM 39.9933 -106.2622 274° West 387 445 29,800 1,113 Climbing Denver Center
Fri 10:39:38 AM 40.0008 -106.4053 274° West 395 455 30,900 968 Climbing Denver Center
Fri 10:40:40 AM 40.0489 -106.5544 293° West 424 488 31,800 1,161 Climbing Denver Center
Fri 10:41:42 AM 40.1106 -106.7081 298° West 427 491 33,300 1,355 Climbing Denver Center
Fri 10:42:44 AM 40.1647 -106.8383 299° West 426 490 34,600 1,210 Climbing Denver Center
Fri 10:43:46 AM 40.2217 -106.9864 297° West 411 473 35,800 677 Climbing Denver Center
Fri 10:44:48 AM 40.2725 -107.1161 297° West 417 480 36,000 97 Climbing Denver Center
Fri 10:45:50 AM 40.3344 -107.2719 298° West 430 495 36,000  Level Denver Center
Fri 10:46:52 AM 40.3872 -107.4050 298° West 431 496 36,000  Level Denver Center
Fri 10:47:54 AM 40.4478 -107.5625 297° West 433 498 36,000  Level Denver Center
Fri 10:48:57 AM 40.4997 -107.6950 297° West 429 494 36,000  Level Denver Center
Fri 10:49:59 AM 40.5589 -107.8475 297° West 421 484 36,000 48 Level Denver Center
Fri 10:51:01 AM 40.6092 -107.9761 297° West 416 479 36,100 581 Climbing Denver Center
Fri 10:52:03 AM 40.6672 -108.1258 297° West 411 473 37,200 897 Climbing Denver Center
Fri 10:52:48 AM 40.7056 -108.2306 296° West 413 475 37,700 453 Climbing Salt Lake Center
Fri 10:53:49 AM 40.7542 -108.3600 296° West 412 474 38,000 228 Climbing Salt Lake Center
Fri 10:54:07 AM 40.7717 -108.4022 299° West 415 478 38,000  Level Denver Center
Fri 10:55:09 AM 40.8206 -108.5350 296° West 418 481 38,000  Level Denver Center
Fri 10:56:11 AM 40.8794 -108.6900 297° West 419 482 38,000  Level Denver Center
Fri 10:56:55 AM 40.9114 -108.7781 296° West 415 478 38,000  Level Salt Lake Center
Fri 10:57:57 AM 40.9681 -108.9294 296° West 412 474 38,000  Level Salt Lake Center
Fri 10:58:59 AM 41.0161 -109.0581 296° West 406 467 38,000  Level Salt Lake Center
Fri 11:00:00 AM 41.0714 -109.2092 296° West 405 466 38,000  Level Salt Lake Center
Fri 11:01:02 AM 41.1183 -109.3389 296° West 405 466 38,000  Level Salt Lake Center
Fri 11:02:04 AM 41.1658 -109.4681 296° West 405 466 38,000  Level Salt Lake Center
Fri 11:03:06 AM 41.2203 -109.6178 296° West 402 463 38,000  Level Salt Lake Center
Fri 11:04:08 AM 41.2669 -109.7461 296° West 400 460 38,000  Level Salt Lake Center
Fri 11:05:10 AM 41.3203 -109.8942 296° West 398 458 38,000  Level Salt Lake Center
Fri 11:06:12 AM 41.3658 -110.0200 296° West 397 457 38,000  Level Salt Lake Center
Fri 11:07:14 AM 41.4189 -110.1672 296° West 395 455 38,000  Level Salt Lake Center
Fri 11:08:16 AM 41.4631 -110.2925 295° West 391 450 38,000  Level Salt Lake Center
Fri 11:09:18 AM 41.5061 -110.4181 295° West 389 448 38,000  Level Salt Lake Center
Fri 11:10:20 AM 41.5586 -110.5633 296° West 389 448 38,000  Level Salt Lake Center
Fri 11:11:22 AM 41.6019 -110.6914 294° West 393 452 38,000  Level Salt Lake Center
Fri 11:12:24 AM 41.6550 -110.8389 296° West 394 453 38,000  Level Salt Lake Center
Fri 11:13:26 AM 41.6986 -110.9644 295° West 393 452 38,000  Level Salt Lake Center
Fri 11:14:27 AM 41.7447 -111.0967 295° West 395 455 38,000  Level Salt Lake Center
Fri 11:15:29 AM 41.8000 -111.2567 295° West 395 455 38,000  Level Salt Lake Center
Fri 11:16:31 AM 41.8450 -111.3908 294° West 398 458 38,000  Level Salt Lake Center
Fri 11:17:33 AM 41.8903 -111.5244 295° West 397 457 38,000  Level Salt Lake Center
Fri 11:18:35 AM 41.9361 -111.6578 295° West 396 456 38,000  Level Salt Lake Center
Fri 11:19:37 AM 41.9806 -111.7919 294° West 396 456 38,000  Level Salt Lake Center
Fri 11:20:39 AM 42.0264 -111.9264 295° West 397 457 38,000  Level Salt Lake Center
Fri 11:21:41 AM 42.0800 -112.0878 294° West 396 456 38,000  Level Salt Lake Center
Fri 11:22:43 AM 42.1250 -112.2242 294° West 399 459 38,000  Level Salt Lake Center
Fri 11:23:45 AM 42.1708 -112.3592 295° West 400 460 38,000  Level Salt Lake Center
Fri 11:24:47 AM 42.2167 -112.4936 295° West 397 457 38,000  Level Salt Lake Center
Fri 11:25:49 AM 42.2686 -112.6261 298° West 400 460 38,000  Level Salt Lake Center
Fri 11:26:51 AM 42.3183 -112.7592 297° West 399 459 38,000  Level Salt Lake Center
Fri 11:27:53 AM 42.3794 -112.9181 298° West 398 458 38,000  Level Salt Lake Center
Fri 11:28:55 AM 42.4294 -113.0514 297° West 398 458 38,000  Level Salt Lake Center
Fri 11:29:57 AM 42.4792 -113.1833 297° West 395 455 38,000 -290 Level Salt Lake Center
Fri 11:30:59 AM 42.5289 -113.3156 297° West 395 455 37,400 -823 Descending Salt Lake Center
Fri 11:32:01 AM 42.5789 -113.4461 298° West 394 453 36,300 -1,065 Descending Salt Lake Center
Fri 11:33:03 AM 42.6356 -113.5964 297° West 378 435 35,200 -1,016 Descending Salt Lake Center
Fri 11:34:05 AM 42.6808 -113.7197 297° West 368 423 34,200 -1,016 Descending Salt Lake Center
Fri 11:35:07 AM 42.7264 -113.8417 297° West 364 419 33,100 -1,016 Descending Salt Lake Center
Fri 11:36:09 AM 42.7703 -113.9700 295° West 369 425 32,100 -1,161 Descending Salt Lake Center
Fri 11:37:11 AM 42.8167 -114.0981 296° West 378 435 30,700 -1,355 Descending Salt Lake Center
Fri 11:38:13 AM 42.8633 -114.2300 296° West 387 445 29,300 -1,632 Descending Salt Lake Center
Fri 11:39:16 AM 42.9225 -114.3875 297° West 389 448 27,300 -1,742 Descending Salt Lake Center
Fri 11:40:17 AM 42.9719 -114.5228 297° West 390 449 25,700 -1,512 Descending Salt Lake Center
Fri 11:41:19 AM 43.0167 -114.6475 296° West 382 440 24,200 -1,584 Descending Salt Lake Center
Fri 11:42:22 AM 43.0656 -114.7842 296° West 354 407 22,400 -1,645 Descending Salt Lake Center
Fri 11:43:23 AM 43.1025 -114.8931 295° West 332 382 20,800 -1,610 Descending Salt Lake Center
Fri 11:44:25 AM 43.1444 -115.0092 296° West 313 360 19,100 -1,500 Descending Salt Lake Center
Fri 11:45:27 AM 43.1825 -115.1197 295° West 310 357 17,700 -1,161 Descending Salt Lake Center
Fri 11:46:29 AM 43.2178 -115.2197 296° West 301 346 16,700 -1,016 Descending Salt Lake Center
Fri 11:47:31 AM 43.2539 -115.3236 296° West 293 337 15,600 -1,008 Descending Salt Lake Center
Fri 11:48:34 AM 43.2917 -115.4286 296° West 294 338 14,600 -1,008 Descending Salt Lake Center
Fri 11:49:36 AM 43.3286 -115.5367 295° West 299 344 13,500 -1,113 Descending Salt Lake Center
Fri 11:50:38 AM 43.3636 -115.6356 296° West 282 325 12,300 -1,210 Descending Salt Lake Center
Fri 11:51:40 AM 43.3964 -115.7314 295° West 268 308 11,000 -1,306 Descending Salt Lake Center
Fri 11:52:42 AM 43.4286 -115.8242 296° West 260 299 9,600 -1,306 Descending Salt Lake Center
Fri 11:53:44 AM 43.4586 -115.9081 296° West 236 272 8,300 -1,258 Descending Salt Lake Center
Fri 11:54:46 AM 43.4794 -115.9722 294° West 199 229 7,000 -1,210 Descending Salt Lake Center
Fri 11:55:48 AM 43.5014 -116.0356 296° West 180 207 5,800 -1,113 Descending Salt Lake Center
Fri 11:56:50 AM 43.5214 -116.0933 296° West 165 190 4,700 -919 Descending Salt Lake Center
Fri 11:57:52 AM 43.5356 -116.1397 293° West 133 153 3,900 -484 Descending Salt Lake Center
Fri 11:58:54 AM 43.5494 -116.1831 294° West 128 147 3,700 -194 Descending Salt Lake Center
Fri 12:00:00 PM 43.5500 -116.2167 270° West  Level FlightAware Approximate
Fri 12:07:00 PM 43.5644 -116.2229 270° West  Level Estimated
Fri 12:08:00 PM 43.5644 -116.2229 270° West  Level Estimated
Fri 12:09:00 PM 43.5644 -116.2229 270° West  Level Estimated

Login

Don't have an account? Register now (free) for customized features, flight alerts, and more!